createdAt,value
2022-08-10T00:01:07.879Z,17.90
2022-08-10T00:03:34.531Z,16.50
2022-08-10T00:06:01.219Z,15.90
2022-08-10T00:10:56.621Z,16.10
2022-08-10T00:13:26.322Z,16.10
2022-08-10T00:23:29.194Z,15.50
2022-08-10T00:25:55.868Z,15.30
2022-08-10T00:28:22.521Z,13.90
2022-08-10T00:30:49.204Z,16.80
2022-08-10T00:33:16.080Z,14.70
2022-08-10T00:35:42.779Z,15.40
2022-08-10T00:38:09.456Z,16.20
2022-08-10T00:40:38.050Z,16.50
2022-08-10T00:43:05.801Z,14.60
2022-08-10T00:45:32.556Z,16.30
2022-08-10T00:47:59.279Z,15.20
2022-08-10T00:50:25.963Z,16.20
2022-08-10T00:52:52.890Z,15.90
2022-08-10T00:55:19.757Z,15.20
2022-08-10T00:57:46.736Z,14.60
2022-08-10T01:00:22.788Z,17.10
2022-08-10T01:02:49.536Z,14.80
2022-08-10T01:05:16.423Z,15.10
2022-08-10T01:07:53.361Z,14.40
2022-08-10T01:10:28.425Z,15.40
2022-08-10T01:13:07.029Z,15.40
2022-08-10T01:15:45.878Z,15.40
2022-08-10T01:18:14.999Z,15.30
2022-08-10T01:26:12.460Z,14.80
2022-08-10T01:28:54.631Z,14.90
2022-08-10T01:31:23.243Z,14.80
2022-08-10T01:34:03.490Z,14.00
2022-08-10T01:39:01.808Z,14.80
2022-08-10T01:41:57.020Z,14.30
2022-08-10T01:44:32.184Z,14.80
2022-08-10T01:47:22.635Z,14.60
2022-08-10T01:49:51.968Z,14.40
2022-08-10T02:09:49.307Z,14.50
2022-08-10T02:17:57.106Z,13.70
2022-08-10T02:20:01.379Z,13.40
2022-08-10T02:22:45.927Z,13.30
2022-08-10T02:25:40.670Z,13.30
2022-08-10T02:28:02.021Z,13.60
2022-08-10T02:59:10.988Z,14.30
2022-08-10T03:01:41.343Z,13.00
2022-08-10T03:04:11.894Z,13.50
2022-08-10T03:06:39.984Z,13.50
2022-08-10T03:09:07.761Z,13.40
2022-08-10T03:12:34.944Z,13.40
2022-08-10T03:14:22.857Z,13.40
2022-08-10T03:16:50.531Z,13.60
2022-08-10T03:20:34.082Z,13.80
2022-08-10T03:22:04.494Z,13.50
2022-08-10T03:24:33.471Z,13.60
2022-08-10T03:27:01.005Z,13.30
2022-08-10T03:29:28.572Z,13.10
2022-08-10T03:34:33.295Z,13.10
2022-08-10T03:37:00.689Z,12.80
2022-08-10T03:39:27.590Z,12.90
2022-08-10T03:41:56.009Z,12.90
2022-08-10T03:44:28.582Z,12.30
2022-08-10T03:46:55.810Z,13.10
2022-08-10T03:49:25.249Z,12.80
2022-08-10T03:51:51.989Z,13.30
2022-08-10T03:54:19.256Z,12.60
2022-08-10T03:56:46.124Z,13.90
2022-08-10T03:59:14.075Z,12.70
2022-08-10T04:02:43.417Z,12.70
2022-08-10T04:04:31.328Z,12.80
2022-08-10T04:06:58.538Z,12.80
2022-08-10T04:09:29.758Z,13.00
2022-08-10T04:12:13.606Z,13.10
2022-08-10T04:14:49.752Z,12.90
2022-08-10T04:18:04.053Z,12.70
2022-08-10T04:20:07.900Z,12.70
2022-08-10T04:22:35.907Z,12.80
2022-08-10T04:25:04.943Z,12.90
2022-08-10T04:27:31.874Z,12.90
2022-08-10T04:29:58.543Z,13.60
2022-08-10T04:32:26.524Z,12.70
2022-08-10T04:34:55.462Z,12.60
2022-08-10T04:37:23.254Z,12.70
2022-08-10T04:39:50.027Z,12.90
2022-08-10T04:42:17.196Z,12.90
2022-08-10T04:44:43.931Z,12.80
2022-08-10T05:50:19.767Z,15.20
2022-08-10T05:52:46.548Z,15.20
2022-08-10T06:05:27.818Z,15.80
2022-08-10T06:23:15.680Z,16.70
2022-08-10T06:26:09.814Z,17.00
2022-08-10T06:28:31.550Z,17.20
2022-08-10T06:30:59.611Z,17.50
2022-08-10T06:33:26.781Z,18.20
2022-08-10T07:08:21.501Z,21.20
2022-08-10T07:28:33.687Z,22.50
2022-08-10T07:31:01.210Z,23.80
2022-08-10T07:35:57.940Z,23.10
2022-08-10T07:38:27.022Z,23.30
2022-08-10T07:40:54.057Z,23.80
2022-08-10T07:43:23.311Z,22.40
2022-08-10T07:45:50.272Z,23.70
2022-08-10T07:48:18.731Z,24.10
2022-08-10T07:50:46.457Z,24.00
2022-08-10T07:53:16.096Z,25.00
2022-08-10T07:56:05.542Z,24.20
2022-08-10T07:58:32.038Z,24.30
2022-08-10T08:00:59.405Z,25.10
2022-08-10T08:03:28.833Z,25.40
2022-08-10T08:06:03.123Z,24.90
2022-08-10T08:10:59.950Z,25.20
2022-08-10T08:16:19.960Z,25.40
2022-08-10T08:18:45.664Z,25.00
2022-08-10T08:24:05.991Z,25.40
2022-08-10T08:24:31.410Z,25.10
2022-08-10T08:27:04.872Z,25.60
2022-08-10T08:29:42.020Z,25.80
2022-08-10T08:32:18.506Z,26.00
2022-08-10T08:34:48.512Z,26.00
2022-08-10T08:38:28.868Z,27.40
2022-08-10T08:40:23.497Z,26.10
2022-08-10T08:43:09.833Z,26.20
2022-08-10T08:48:30.469Z,26.50
2022-08-10T08:50:58.027Z,26.80
2022-08-10T08:58:52.379Z,27.00
2022-08-10T09:06:34.883Z,27.50
2022-08-10T09:30:16.651Z,28.60
2022-08-10T09:36:15.580Z,29.30
2022-08-10T12:11:50.704Z,34.50
2022-08-10T12:14:24.512Z,34.00
2022-08-10T12:16:52.662Z,33.60
2022-08-10T12:19:26.339Z,33.00
2022-08-10T12:22:05.894Z,31.40
2022-08-10T12:27:05.505Z,31.40
2022-08-10T12:29:45.632Z,31.10
2022-08-10T12:32:14.527Z,32.80
2022-08-10T12:34:51.000Z,33.40
2022-08-10T12:37:20.965Z,32.30
2022-08-10T12:42:39.112Z,31.00
2022-08-10T12:45:14.381Z,30.80
2022-08-10T12:50:31.095Z,31.70
2022-08-10T12:53:09.969Z,31.90
2022-08-10T12:55:38.112Z,30.60
2022-08-10T12:58:56.791Z,31.10
2022-08-10T13:01:15.067Z,33.40
2022-08-10T13:04:20.662Z,34.40
2022-08-10T13:06:51.796Z,33.80
2022-08-10T13:09:24.983Z,34.40
2022-08-10T13:12:44.677Z,34.90
2022-08-10T13:14:50.936Z,35.90
2022-08-10T13:17:38.707Z,36.70
2022-08-10T13:20:15.332Z,34.80
2022-08-10T13:23:10.034Z,35.60
2022-08-10T13:36:27.310Z,36.40
2022-08-10T13:38:55.884Z,36.00
2022-08-10T13:41:30.598Z,36.80
2022-08-10T13:43:58.936Z,36.20
2022-08-10T13:46:28.371Z,37.00
2022-08-10T13:51:53.833Z,38.10
2022-08-10T13:54:16.305Z,38.50
2022-08-10T13:56:44.859Z,38.10
2022-08-10T13:59:16.306Z,36.50
2022-08-10T14:01:50.780Z,33.90
2022-08-10T14:04:18.567Z,32.80
2022-08-10T14:07:01.787Z,32.60
2022-08-10T14:09:31.147Z,32.10
2022-08-10T14:12:03.711Z,33.20
2022-08-10T14:14:35.289Z,33.00
2022-08-10T14:17:20.600Z,34.00
2022-08-10T14:19:59.325Z,35.50
2022-08-10T14:22:33.709Z,36.50
2022-08-10T14:25:11.324Z,36.30
2022-08-10T14:30:31.045Z,36.80
2022-08-10T14:33:00.301Z,37.30
2022-08-10T14:36:19.444Z,38.00
2022-08-10T14:38:19.434Z,36.70
2022-08-10T14:40:50.085Z,37.50
2022-08-10T14:43:28.300Z,34.90
2022-08-10T14:46:02.558Z,35.60
2022-08-10T14:48:32.901Z,35.90
2022-08-10T14:51:00.879Z,36.60
2022-08-10T14:53:34.334Z,36.60
2022-08-10T14:58:31.457Z,33.90
2022-08-10T15:00:58.629Z,33.00
2022-08-10T15:04:01.369Z,33.20
2022-08-10T15:06:19.563Z,34.10
2022-08-10T15:08:47.065Z,35.00
2022-08-10T15:12:15.712Z,36.30
2022-08-10T15:14:14.788Z,36.20
2022-08-10T15:16:49.700Z,35.20
2022-08-10T15:20:03.364Z,36.50
2022-08-10T15:22:18.127Z,35.60
2022-08-10T15:25:06.566Z,35.40
2022-08-10T15:27:53.942Z,36.00
2022-08-10T15:30:23.898Z,35.20
2022-08-10T15:33:57.051Z,35.40
2022-08-10T15:36:35.809Z,35.90
2022-08-10T15:40:25.051Z,36.30
2022-08-10T15:42:22.859Z,36.70
2022-08-10T15:44:50.809Z,36.40
2022-08-10T15:47:22.147Z,36.40
2022-08-10T15:49:57.257Z,36.60
2022-08-10T15:52:39.504Z,35.80
2022-08-10T15:55:41.701Z,32.50
2022-08-10T15:58:18.027Z,31.30
2022-08-10T16:00:50.546Z,30.90
2022-08-10T16:03:23.355Z,32.00
2022-08-10T16:06:01.814Z,33.90
2022-08-10T16:08:56.610Z,33.90
2022-08-10T16:11:26.690Z,35.00
2022-08-10T16:14:19.085Z,35.40
2022-08-10T16:16:48.893Z,35.50
2022-08-10T16:19:24.363Z,35.60
2022-08-10T16:22:34.173Z,35.70
2022-08-10T16:24:53.981Z,35.90
2022-08-10T16:27:31.395Z,35.50
2022-08-10T16:30:00.358Z,35.10
2022-08-10T16:32:27.601Z,36.10
2022-08-10T16:34:55.279Z,35.70
2022-08-10T16:37:22.249Z,35.90
2022-08-10T16:40:01.057Z,34.90
2022-08-10T16:42:29.987Z,34.60
2022-08-10T16:45:07.055Z,35.60
2022-08-10T16:47:36.020Z,34.40
2022-08-10T16:50:10.488Z,34.80
2022-08-10T16:52:45.945Z,32.60
2022-08-10T16:55:24.421Z,31.40
2022-08-10T16:58:12.018Z,30.20
2022-08-10T17:18:31.073Z,28.10
2022-08-10T17:23:26.884Z,27.70
2022-08-10T17:25:57.071Z,29.20
2022-08-10T17:28:35.350Z,28.60
2022-08-10T17:31:54.095Z,28.50
2022-08-10T17:36:23.256Z,27.30
2022-08-10T17:38:51.367Z,28.70
2022-08-10T17:46:31.699Z,27.20
2022-08-10T17:51:30.552Z,27.10
2022-08-10T17:53:58.469Z,28.00
2022-08-10T17:56:25.921Z,26.90
2022-08-10T17:58:56.013Z,28.50
2022-08-10T18:04:14.196Z,28.30
2022-08-10T18:09:09.807Z,26.70
2022-08-10T18:11:41.307Z,26.60
2022-08-10T18:14:09.561Z,27.70
2022-08-10T18:16:41.796Z,28.30
2022-08-10T18:19:12.259Z,26.20
2022-08-10T18:21:39.974Z,26.20
2022-08-10T18:24:16.258Z,26.30
2022-08-10T18:29:16.682Z,25.70
2022-08-10T18:31:46.534Z,26.70
2022-08-10T18:34:17.324Z,26.70
2022-08-10T18:36:45.050Z,26.50
2022-08-10T18:39:14.171Z,27.20
2022-08-10T18:44:39.923Z,25.20
2022-08-10T18:47:09.710Z,25.80
2022-08-10T18:54:44.819Z,24.50
2022-08-10T19:04:52.392Z,24.40
2022-08-10T19:12:44.437Z,24.00
2022-08-10T19:15:14.756Z,23.90
2022-08-10T19:18:03.052Z,23.90
2022-08-10T19:20:35.604Z,23.80
2022-08-10T19:51:02.275Z,22.40
2022-08-10T20:08:40.947Z,21.20
2022-08-10T20:13:54.339Z,20.60
2022-08-10T20:16:31.504Z,20.40
2022-08-10T20:19:00.467Z,20.20
2022-08-10T20:21:29.360Z,19.40
2022-08-10T20:24:08.883Z,19.10
2022-08-10T20:26:43.073Z,20.30
2022-08-10T20:29:09.706Z,19.50
2022-08-10T20:31:50.237Z,19.90
2022-08-10T20:34:20.589Z,19.90
2022-08-10T20:36:59.852Z,18.80
2022-08-10T20:39:30.689Z,19.70
2022-08-10T20:42:02.573Z,21.10
2022-08-10T20:44:40.822Z,20.10
2022-08-10T20:47:13.545Z,19.70
2022-08-10T20:49:52.346Z,19.40
2022-08-10T20:52:20.774Z,18.90
2022-08-10T20:54:51.169Z,18.70
2022-08-10T20:57:55.309Z,20.60
2022-08-10T21:00:24.062Z,18.60
2022-08-10T21:03:15.868Z,18.40
2022-08-10T21:06:08.839Z,18.50
2022-08-10T21:11:02.611Z,18.20
2022-08-10T21:13:32.411Z,17.60
2022-08-10T21:16:28.261Z,18.40
2022-08-10T21:19:13.621Z,18.30
2022-08-10T21:41:57.814Z,17.40
2022-08-10T21:45:13.826Z,17.40
2022-08-10T21:48:17.373Z,17.80
2022-08-10T21:51:10.350Z,17.70
2022-08-10T21:54:21.661Z,17.90
2022-08-10T21:57:23.258Z,18.20
2022-08-10T22:00:22.387Z,17.80
2022-08-10T22:03:07.775Z,17.70
2022-08-10T22:05:55.694Z,17.20
2022-08-10T22:08:44.387Z,17.00
2022-08-10T22:11:37.137Z,16.50
2022-08-10T22:14:25.511Z,17.20
2022-08-10T22:18:00.727Z,16.70
2022-08-10T22:20:33.010Z,17.50
2022-08-10T22:23:37.079Z,17.40
2022-08-10T22:26:37.846Z,17.40
2022-08-10T22:32:14.996Z,17.00
2022-08-10T22:37:54.510Z,16.90
2022-08-10T22:40:41.436Z,17.70
2022-08-10T22:43:36.502Z,16.40
2022-08-10T22:46:25.076Z,16.60
2022-08-10T22:55:10.634Z,16.50
2022-08-10T22:58:09.036Z,16.30
2022-08-10T23:00:36.786Z,15.90
2022-08-10T23:03:11.747Z,15.90
2022-08-10T23:05:42.188Z,16.10
2022-08-10T23:08:29.586Z,15.80
2022-08-10T23:11:01.959Z,16.00
2022-08-10T23:13:36.353Z,16.20
2022-08-10T23:16:39.378Z,16.10
2022-08-10T23:19:36.475Z,16.10
2022-08-10T23:22:26.137Z,16.00
2022-08-10T23:24:54.099Z,15.90
2022-08-10T23:27:42.654Z,15.60
2022-08-10T23:30:18.157Z,16.00
2022-08-10T23:32:48.823Z,15.70
2022-08-10T23:36:04.371Z,14.90
2022-08-10T23:38:05.091Z,15.60
2022-08-10T23:40:32.345Z,15.30
2022-08-10T23:42:59.405Z,15.40
2022-08-10T23:45:27.751Z,14.30
2022-08-10T23:47:57.497Z,15.40
2022-08-10T23:50:26.543Z,14.40
2022-08-10T23:52:56.235Z,15.60
2022-08-10T23:55:28.729Z,16.90
